Time;durP1;ratioP1;P1;durP2;ratioP2;P2;SDS_P1;SDS_P2;PMS_P1;PMS_P2;Temp;Humidity;BMP_temperature;BMP_pressure;BME280_temperature;BME280_humidity;BME280_pressure;Samples;Min_cycle;Max_cycle;Signal;HPM_P1;HPM_P2
2023/04/23 07:50:09;;;;;;;4.15;3.47;;;15.70;99.90;;;;;;5111964;27;20621;-84
2023/04/23 07:52:35;;;;;;;6.00;3.90;;;15.60;99.90;;;;;;5110102;28;20180;-84
2023/04/23 07:55:01;;;;;;;5.15;3.60;;;16.00;99.90;;;;;;5109962;28;20181;-84
2023/04/23 07:57:27;;;;;;;3.30;3.10;;;16.20;98.70;;;;;;5110201;28;20620;-84
2023/04/23 07:59:52;;;;;;;4.28;3.15;;;16.20;99.10;;;;;;5110644;28;20263;-84
2023/04/23 08:02:22;;;;;;;5.32;3.10;;;15.90;98.60;;;;;;5110010;28;20632;-84
2023/04/23 08:04:48;;;;;;;4.50;3.28;;;15.70;99.00;;;;;;5110055;28;20180;-84
2023/04/23 08:07:13;;;;;;;3.65;3.20;;;15.50;99.00;;;;;;5110063;28;20192;-84
2023/04/23 08:09:39;;;;;;;3.50;3.20;;;15.50;99.10;;;;;;5110678;28;20200;-84
2023/04/23 08:12:05;;;;;;;5.50;3.53;;;15.60;99.10;;;;;;5110938;28;20177;-85
2023/04/23 08:14:42;;;;;;;3.28;3.08;;;15.80;99.00;;;;;;5109935;28;20168;-85
2023/04/23 08:17:51;;;;;;;3.00;2.80;;;16.20;99.20;;;;;;5109484;28;20249;-85
2023/04/23 08:20:17;;;;;;;6.32;3.75;;;16.60;97.30;;;;;;5109578;28;20168;-85
2023/04/23 08:22:57;;;;;;;4.72;4.28;;;16.60;96.40;;;;;;5109137;28;20181;-84
2023/04/23 08:25:23;;;;;;;23.17;19.73;;;16.70;96.10;;;;;;5109513;28;20194;-85
2023/04/23 08:27:49;;;;;;;8.35;7.15;;;16.40;96.10;;;;;;5110039;28;20192;-85
2023/04/23 08:30:14;;;;;;;4.15;3.80;;;16.40;94.80;;;;;;5109318;28;20177;-85
2023/04/23 08:32:40;;;;;;;4.43;2.80;;;16.60;94.80;;;;;;5110619;28;20172;-84
2023/04/23 08:35:07;;;;;;;3.45;3.15;;;16.80;94.00;;;;;;5110999;28;20656;-85
2023/04/23 08:37:33;;;;;;;2.97;2.78;;;17.00;93.80;;;;;;5109118;28;20198;-85
2023/04/23 08:40:07;;;;;;;3.10;2.90;;;17.00;93.40;;;;;;5109161;28;20176;-84
2023/04/23 08:42:41;;;;;;;2.95;2.53;;;17.00;92.40;;;;;;5109739;28;20577;-84
2023/04/23 08:45:07;;;;;;;3.13;2.90;;;16.80;93.20;;;;;;5109829;28;20670;-87
2023/04/23 08:47:34;;;;;;;3.00;2.80;;;16.80;93.30;;;;;;5108862;28;20191;-84
2023/04/23 08:50:02;;;;;;;2.88;2.67;;;17.20;93.30;;;;;;5101449;28;20180;-84
2023/04/23 08:52:33;;;;;;;3.05;2.83;;;17.30;93.30;;;;;;5095452;28;20667;-84
2023/04/23 08:55:00;;;;;;;2.88;2.67;;;17.50;93.20;;;;;;5096553;28;20165;-84
2023/04/23 08:57:26;;;;;;;3.00;2.60;;;17.90;92.80;;;;;;5095155;28;20192;-84
2023/04/23 08:59:54;;;;;;;2.80;2.60;;;18.30;92.70;;;;;;5094968;28;20180;-84
2023/04/23 09:02:20;;;;;;;2.92;2.70;;;18.40;91.00;;;;;;5095231;28;20173;-83
2023/04/23 09:04:47;;;;;;;3.58;2.75;;;18.60;90.70;;;;;;5095048;28;20180;-85
2023/04/23 09:07:14;;;;;;;5.15;4.53;;;18.40;90.50;;;;;;5095392;28;20204;-83
2023/04/23 09:09:40;;;;;;;10.43;9.52;;;18.10;90.40;;;;;;5095179;28;20262;-85
2023/04/23 09:12:21;;;;;;;5.90;5.40;;;17.90;90.20;;;;;;5097912;28;20546;-84
2023/04/23 09:14:49;;;;;;;5.55;3.13;;;17.70;91.30;;;;;;5095466;28;20165;-84
2023/04/23 09:17:15;;;;;;;9.95;9.02;;;17.50;91.70;;;;;;5095349;28;20323;-85
2023/04/23 09:19:41;;;;;;;17.23;15.73;;;17.60;91.60;;;;;;5095590;28;20229;-85
2023/04/23 09:22:08;;;;;;;4.85;4.35;;;17.60;91.40;;;;;;5096796;28;20165;-85
2023/04/23 09:24:34;;;;;;;4.03;3.30;;;17.60;91.20;;;;;;5095107;28;20185;-85
2023/04/23 09:27:02;;;;;;;2.92;2.67;;;17.70;89.50;;;;;;5095723;28;20219;-84
2023/04/23 09:29:29;;;;;;;3.35;2.45;;;17.50;89.70;;;;;;5095430;28;20197;-84
2023/04/23 09:32:08;;;;;;;2.63;2.08;;;17.90;90.30;;;;;;5095792;28;20177;-84
2023/04/23 09:34:37;;;;;;;2.55;2.35;;;18.30;88.40;;;;;;5095239;28;20183;-84
2023/04/23 09:37:05;;;;;;;2.65;2.45;;;18.40;87.30;;;;;;5094951;28;20231;-84
2023/04/23 09:39:34;;;;;;;2.80;2.60;;;18.60;85.70;;;;;;5098964;28;20271;-84
2023/04/23 09:42:04;;;;;;;4.07;3.78;;;19.00;85.30;;;;;;5097029;28;20226;-84
2023/04/23 09:44:34;;;;;;;5.63;3.30;;;19.00;83.00;;;;;;5096641;28;20177;-83
2023/04/23 09:47:08;;;;;;;2.25;2.15;;;19.20;81.60;;;;;;5094868;28;20203;-83
2023/04/23 09:49:46;;;;;;;4.32;2.10;;;19.20;78.30;;;;;;5095780;28;20212;-84
2023/04/23 09:52:12;;;;;;;3.00;2.70;;;19.30;79.50;;;;;;5095694;28;20587;-83
2023/04/23 09:54:37;;;;;;;4.07;3.55;;;19.50;79.50;;;;;;5095138;28;20173;-84
2023/04/23 09:57:07;;;;;;;8.00;7.30;;;19.50;78.30;;;;;;5094618;28;20217;-84
2023/04/23 09:59:36;;;;;;;33.75;30.45;;;19.50;77.00;;;;;;5094533;28;20555;-84
2023/04/23 10:02:05;;;;;;;12.90;11.68;;;19.40;76.90;;;;;;5094884;28;20169;-83
2023/04/23 10:04:31;;;;;;;11.05;9.95;;;19.20;76.50;;;;;;5095981;28;20256;-83
2023/04/23 10:07:03;;;;;;;10.63;9.55;;;19.10;77.30;;;;;;5093290;28;20231;-83
2023/04/23 10:09:32;;;;;;;13.55;12.15;;;19.00;76.50;;;;;;5089866;28;20201;-83
2023/04/23 10:12:03;;;;;;;10.23;9.18;;;18.90;78.60;;;;;;5091987;28;20203;-83
2023/04/23 10:14:28;;;;;;;4.18;3.88;;;18.80;80.00;;;;;;5092413;28;20536;-83
2023/04/23 10:17:02;;;;;;;6.88;2.55;;;18.50;81.60;;;;;;5092171;28;20200;-86
2023/04/23 10:19:29;;;;;;;3.67;2.40;;;18.30;81.30;;;;;;5092527;28;20243;-86
2023/04/23 10:22:04;;;;;;;3.30;3.10;;;18.10;82.40;;;;;;5092979;28;20188;-85
2023/04/23 10:24:32;;;;;;;2.75;2.55;;;18.10;82.00;;;;;;5093616;28;20222;-85
2023/04/23 10:27:07;;;;;;;3.90;2.70;;;18.00;82.00;;;;;;5093269;28;20220;-85
2023/04/23 10:29:35;;;;;;;2.70;2.50;;;17.70;83.60;;;;;;5093483;28;20195;-85
2023/04/23 10:32:05;;;;;;;2.42;2.22;;;17.90;84.00;;;;;;5093523;28;20176;-85
2023/04/23 10:34:32;;;;;;;3.10;1.98;;;18.10;84.90;;;;;;5093455;28;20210;-85
2023/04/23 10:37:00;;;;;;;2.10;2.00;;;18.50;83.70;;;;;;5093347;28;20188;-85
2023/04/23 10:39:33;;;;;;;2.17;1.85;;;19.10;81.60;;;;;;5093568;28;20180;-86
2023/04/23 10:41:59;;;;;;;4.10;3.45;;;19.10;76.90;;;;;;5094483;28;20168;-86
2023/04/23 10:44:41;;;;;;;2.47;2.13;;;19.20;79.10;;;;;;5093830;28;20185;-85
2023/04/23 10:47:15;;;;;;;2.15;2.05;;;19.50;78.00;;;;;;5094593;28;20227;-84
2023/04/23 10:49:42;;;;;;;2.47;2.13;;;19.70;77.10;;;;;;5093247;28;20244;-84
2023/04/23 10:52:18;;;;;;;2.25;2.00;;;19.80;76.20;;;;;;5093209;28;20177;-84
2023/04/23 10:54:48;;;;;;;2.00;1.90;;;19.60;77.50;;;;;;5092814;28;20660;-84
2023/04/23 10:57:14;;;;;;;3.28;2.00;;;19.40;77.20;;;;;;5092860;28;20553;-84
2023/04/23 10:59:50;;;;;;;2.20;2.10;;;19.30;76.60;;;;;;5093200;28;20180;-84
2023/04/23 11:02:16;;;;;;;2.40;2.10;;;19.10;77.40;;;;;;5093810;28;20172;-84
2023/04/23 11:04:54;;;;;;;2.08;1.90;;;18.70;78.80;;;;;;5092698;28;20177;-83
2023/04/23 11:07:25;;;;;;;4.95;4.47;;;18.60;77.90;;;;;;5093842;28;20197;-83
2023/04/23 11:09:52;;;;;;;5.35;3.67;;;18.40;78.50;;;;;;5092728;28;20169;-83
2023/04/23 11:12:28;;;;;;;2.63;2.42;;;18.20;80.50;;;;;;5092906;28;20188;-83
2023/04/23 11:14:54;;;;;;;4.00;3.58;;;18.00;80.90;;;;;;5094195;28;20171;-83
2023/04/23 11:17:43;;;;;;;4.70;3.38;;;17.80;80.50;;;;;;5092497;28;20246;-85
2023/04/23 11:20:09;;;;;;;2.30;2.20;;;17.50;83.00;;;;;;5092550;28;20181;-84
2023/04/23 11:22:38;;;;;;;5.65;5.03;;;17.40;83.90;;;;;;5094719;28;20204;-85
2023/04/23 11:25:12;;;;;;;5.47;4.93;;;17.40;84.40;;;;;;5093925;28;20187;-85
2023/04/23 11:27:45;;;;;;;3.20;3.00;;;17.40;84.60;;;;;;5092212;28;20176;-84
2023/04/23 11:30:18;;;;;;;3.58;2.22;;;17.60;83.00;;;;;;5092457;28;20173;-85
2023/04/23 11:32:47;;;;;;;2.70;2.13;;;17.70;82.30;;;;;;5091229;28;20164;-84
2023/04/23 11:35:14;;;;;;;3.17;1.90;;;17.90;80.90;;;;;;5091140;28;20179;-85
2023/04/23 11:37:41;;;;;;;1.92;1.83;;;17.90;80.90;;;;;;5093148;28;20187;-84
2023/04/23 11:40:09;;;;;;;2.15;1.90;;;18.00;80.00;;;;;;5093310;28;20177;-86
2023/04/23 11:42:45;;;;;;;2.03;1.80;;;18.20;80.00;;;;;;5093933;28;20181;-84
2023/04/23 11:45:35;;;;;;;1.92;1.65;;;18.50;78.20;;;;;;5092520;28;20577;-86
2023/04/23 11:48:01;;;;;;;2.03;1.90;;;18.70;77.60;;;;;;5092559;28;20204;-84
2023/04/23 11:50:29;;;;;;;2.15;1.95;;;18.90;77.90;;;;;;5093040;28;20169;-84
2023/04/23 11:52:55;;;;;;;3.55;2.03;;;18.70;78.80;;;;;;5093160;28;20234;-85
2023/04/23 11:55:22;;;;;;;2.55;2.03;;;18.70;79.50;;;;;;5093506;28;20305;-85
2023/04/23 11:57:51;;;;;;;2.05;1.95;;;18.40;76.20;;;;;;5092429;28;20211;-85
2023/04/23 12:00:25;;;;;;;1.80;1.70;;;18.30;79.50;;;;;;5092316;28;20179;-85
2023/04/23 12:02:53;;;;;;;2.08;1.98;;;18.30;78.10;;;;;;5092398;28;20179;-85
2023/04/23 12:05:35;;;;;;;3.25;1.80;;;18.40;76.10;;;;;;5091766;28;20165;-85
2023/04/23 12:08:15;;;;;;;1.80;1.70;;;18.50;78.00;;;;;;5089375;28;20681;-85
2023/04/23 12:10:50;;;;;;;2.08;1.90;;;18.70;76.30;;;;;;5092098;28;20161;-86
2023/04/23 12:13:25;;;;;;;2.58;1.95;;;18.60;77.20;;;;;;5092675;28;20532;-86
2023/04/23 12:15:58;;;;;;;3.63;1.88;;;18.40;78.10;;;;;;5092037;28;20192;-85
2023/04/23 12:18:38;;;;;;;2.30;2.10;;;18.20;78.40;;;;;;5092358;28;20161;-85
2023/04/23 12:21:08;;;;;;;1.90;1.80;;;18.10;78.20;;;;;;5092667;28;20590;-85
2023/04/23 12:23:36;;;;;;;2.00;1.80;;;18.20;77.40;;;;;;5092856;28;20165;-85
2023/04/23 12:26:02;;;;;;;1.92;1.70;;;18.50;76.40;;;;;;5095289;28;20200;-85
2023/04/23 12:28:28;;;;;;;1.63;1.52;;;19.00;75.50;;;;;;5097947;28;20204;-85
2023/04/23 12:31:01;;;;;;;6.03;1.80;;;19.70;74.90;;;;;;5096211;28;20173;-86
2023/04/23 12:33:30;;;;;;;1.70;1.60;;;20.40;73.80;;;;;;5096680;28;20169;-87
2023/04/23 12:35:56;;;;;;;1.80;1.70;;;20.80;71.70;;;;;;5096155;28;20673;-84
2023/04/23 12:38:27;;;;;;;1.92;1.83;;;21.00;68.50;;;;;;5096878;28;20183;-84
2023/04/23 12:40:57;;;;;;;2.30;1.70;;;20.80;67.30;;;;;;5096377;28;20199;-85
2023/04/23 12:43:23;;;;;;;3.35;1.70;;;20.70;67.90;;;;;;5096850;28;20218;-85
2023/04/23 12:45:50;;;;;;;2.58;1.70;;;20.60;67.50;;;;;;5095675;28;20292;-85
2023/04/23 12:48:17;;;;;;;2.70;1.70;;;20.60;65.90;;;;;;5097170;28;20209;-85
2023/04/23 12:50:45;;;;;;;1.80;1.70;;;20.70;66.30;;;;;;5095458;28;20239;-85
2023/04/23 12:53:11;;;;;;;1.60;1.50;;;20.70;64.90;;;;;;5096089;28;20511;-85
2023/04/23 12:55:38;;;;;;;1.88;1.77;;;20.70;65.50;;;;;;5095295;28;20200;-85
2023/04/23 12:58:04;;;;;;;2.30;2.05;;;20.50;67.70;;;;;;5096328;28;20181;-85
2023/04/23 13:00:30;;;;;;;2.13;1.65;;;20.30;67.50;;;;;;5095207;28;20200;-85
2023/04/23 13:02:56;;;;;;;1.88;1.60;;;20.40;66.40;;;;;;5094936;28;20227;-85
2023/04/23 13:05:22;;;;;;;1.80;1.70;;;20.70;65.50;;;;;;5110298;22;21147;-74
2023/04/23 13:07:47;;;;;;;3.13;1.90;;;20.70;65.00;;;;;;5077811;28;20693;-73
2023/04/23 13:10:13;;;;;;;2.55;1.65;;;20.60;63.80;;;;;;5078835;28;20183;-73
2023/04/23 13:12:40;;;;;;;2.65;1.70;;;20.40;65.10;;;;;;5077842;28;20547;-74
2023/04/23 13:15:07;;;;;;;1.60;1.50;;;20.40;66.80;;;;;;5078434;28;20218;-75
2023/04/23 13:17:32;;;;;;;1.83;1.70;;;20.30;64.30;;;;;;5078553;28;20316;-75
2023/04/23 13:19:58;;;;;;;1.70;1.60;;;20.10;64.50;;;;;;5077791;28;20754;-75
2023/04/23 13:22:27;;;;;;;2.00;1.80;;;20.10;65.80;;;;;;5077848;28;20177;-75
2023/04/23 13:24:54;;;;;;;1.60;1.50;;;20.20;67.60;;;;;;5078843;28;20169;-75
2023/04/23 13:27:20;;;;;;;2.28;1.60;;;20.20;63.40;;;;;;5077822;28;20672;-75
2023/04/23 13:29:45;;;;;;;2.75;1.63;;;20.20;65.00;;;;;;5077489;28;20203;-75
2023/04/23 13:32:11;;;;;;;2.95;1.50;;;20.20;67.30;;;;;;5095835;28;20165;-75
2023/04/23 13:34:36;;;;;;;1.80;1.70;;;20.10;67.80;;;;;;5077772;28;20165;-75
2023/04/23 13:37:04;;;;;;;4.05;1.95;;;20.00;65.70;;;;;;5095616;28;20220;-75
2023/04/23 13:39:30;;;;;;;1.58;1.48;;;19.90;66.00;;;;;;5077621;28;20261;-75
2023/04/23 13:41:56;;;;;;;2.22;1.50;;;19.90;66.00;;;;;;5077261;28;20177;-75
2023/04/23 13:44:22;;;;;;;1.60;1.50;;;20.00;63.90;;;;;;5077362;28;20200;-75
2023/04/23 13:46:48;;;;;;;2.22;1.42;;;20.10;63.20;;;;;;5077528;28;20232;-75
2023/04/23 13:49:14;;;;;;;3.70;1.77;;;20.10;63.40;;;;;;5078041;28;20289;-75
2023/04/23 13:51:39;;;;;;;2.00;1.50;;;20.10;64.20;;;;;;5077085;28;20223;-75
2023/04/23 13:54:05;;;;;;;1.60;1.50;;;19.90;64.00;;;;;;5077499;28;20169;-75
2023/04/23 13:56:31;;;;;;;2.50;1.80;;;20.00;65.00;;;;;;5077156;28;20201;-75
2023/04/23 13:59:03;;;;;;;1.90;1.67;;;20.10;64.40;;;;;;5078168;28;20702;-75
2023/04/23 14:01:29;;;;;;;2.35;1.63;;;20.40;62.70;;;;;;5076961;28;20222;-75
2023/04/23 14:03:56;;;;;;;1.95;1.70;;;20.60;61.60;;;;;;5077675;28;20183;-75
2023/04/23 14:06:21;;;;;;;1.90;1.75;;;20.70;64.20;;;;;;5076796;28;20243;-75
2023/04/23 14:08:47;;;;;;;2.00;1.77;;;20.50;65.00;;;;;;5077081;28;20232;-75
2023/04/23 14:11:12;;;;;;;3.03;1.73;;;20.40;63.90;;;;;;5094811;28;20621;-75
2023/04/23 14:13:38;;;;;;;5.03;1.63;;;20.20;63.90;;;;;;5076714;28;20201;-75
2023/04/23 14:16:04;;;;;;;2.03;1.38;;;20.40;62.20;;;;;;5076573;28;20669;-75
2023/04/23 14:18:29;;;;;;;2.40;1.70;;;20.50;62.10;;;;;;5077454;28;20184;-75
2023/04/23 14:20:55;;;;;;;2.20;1.70;;;20.60;61.60;;;;;;5076580;28;20222;-75
2023/04/23 14:23:50;;;;;;;1.60;1.50;;;20.60;63.70;;;;;;5076835;28;20545;-75
2023/04/23 14:26:33;;;;;;;2.55;1.50;;;20.50;62.50;;;;;;5094488;28;20284;-75
2023/04/23 14:29:09;;;;;;;1.73;1.63;;;20.30;64.10;;;;;;5076377;28;20193;-75
2023/04/23 14:31:36;;;;;;;1.60;1.50;;;20.20;64.20;;;;;;5077309;28;20169;-75
2023/04/23 14:34:03;;;;;;;2.70;1.63;;;20.40;65.10;;;;;;5076594;28;20173;-75
2023/04/23 14:36:28;;;;;;;3.05;1.63;;;20.30;63.10;;;;;;5076136;28;20564;-75
2023/04/23 14:38:54;;;;;;;1.67;1.58;;;20.40;62.80;;;;;;5076601;28;20210;-75
2023/04/23 14:41:20;;;;;;;2.58;1.60;;;20.40;62.60;;;;;;5076305;28;20555;-75
2023/04/23 14:43:45;;;;;;;1.55;1.45;;;20.20;62.10;;;;;;5077071;28;20203;-75
2023/04/23 14:46:11;;;;;;;1.40;1.30;;;20.10;62.00;;;;;;5076282;28;20569;-75
2023/04/23 14:48:36;;;;;;;2.75;1.40;;;19.90;63.30;;;;;;5076240;28;20556;-75
2023/04/23 14:51:02;;;;;;;2.83;1.55;;;19.80;61.40;;;;;;5076168;28;20169;-75
2023/04/23 14:53:28;;;;;;;2.10;1.52;;;19.80;63.10;;;;;;5076327;28;20629;-75
2023/04/23 14:55:54;;;;;;;1.48;1.35;;;19.80;62.30;;;;;;5076834;28;20288;-75
2023/04/23 14:58:20;;;;;;;1.40;1.30;;;19.70;62.40;;;;;;5076644;28;20668;-75
2023/04/23 15:00:45;;;;;;;1.30;1.20;;;19.60;62.80;;;;;;5076130;28;20181;-75
2023/04/23 15:03:11;;;;;;;2.97;1.40;;;19.50;63.00;;;;;;5076280;28;20180;-76
2023/04/23 15:05:37;;;;;;;5.18;1.33;;;19.40;61.70;;;;;;5076537;28;20216;-76
2023/04/23 15:08:02;;;;;;;2.17;1.15;;;19.30;61.50;;;;;;5076630;28;20200;-75
2023/04/23 15:10:28;;;;;;;1.40;1.30;;;19.20;63.10;;;;;;5075790;28;20234;-75
2023/04/23 15:13:02;;;;;;;5.13;1.63;;;19.20;62.30;;;;;;5093985;28;20641;-75
2023/04/23 15:15:47;;;;;;;2.38;1.30;;;19.10;63.50;;;;;;5093927;28;20153;-76
2023/04/23 15:18:13;;;;;;;1.30;1.30;;;19.10;64.30;;;;;;5076425;28;20173;-75
2023/04/23 15:20:39;;;;;;;1.20;1.20;;;19.00;65.30;;;;;;5075518;28;20196;-75
2023/04/23 15:23:05;;;;;;;1.50;1.40;;;18.90;65.40;;;;;;5076346;28;20177;-76
2023/04/23 15:25:32;;;;;;;1.50;1.45;;;18.90;64.10;;;;;;5093495;28;20177;-76
2023/04/23 15:27:58;;;;;;;2.38;1.30;;;18.90;64.80;;;;;;5075441;28;20208;-75
2023/04/23 15:30:24;;;;;;;1.52;1.40;;;18.90;64.90;;;;;;5076310;28;20617;-75
2023/04/23 15:32:51;;;;;;;1.60;1.50;;;18.90;65.10;;;;;;5075540;28;20655;-76
2023/04/23 15:35:17;;;;;;;3.38;1.45;;;18.80;65.10;;;;;;5075589;28;20172;-75
2023/04/23 15:37:42;;;;;;;2.90;1.35;;;18.60;64.70;;;;;;5075279;28;20196;-76
2023/04/23 15:40:11;;;;;;;2.65;1.35;;;18.40;66.00;;;;;;5075696;28;20214;-75
2023/04/23 15:42:39;;;;;;;4.20;1.48;;;18.30;66.40;;;;;;5075810;28;20176;-75
2023/04/23 15:45:07;;;;;;;2.72;2.40;;;18.20;67.00;;;;;;5075502;28;20256;-75
2023/04/23 15:47:33;;;;;;;1.98;1.58;;;18.20;67.40;;;;;;5075681;28;20234;-75
2023/04/23 15:50:00;;;;;;;1.23;1.13;;;18.10;67.10;;;;;;5076213;28;20192;-76
2023/04/23 15:52:29;;;;;;;1.45;1.35;;;18.20;64.60;;;;;;5076000;28;20247;-75
2023/04/23 15:54:55;;;;;;;2.83;1.40;;;18.30;64.20;;;;;;5076200;28;20234;-75
2023/04/23 15:57:20;;;;;;;1.50;1.30;;;18.20;63.50;;;;;;5093316;28;20676;-76
2023/04/23 15:59:46;;;;;;;2.17;1.35;;;18.20;64.20;;;;;;5076061;28;20198;-80
2023/04/23 16:02:12;;;;;;;1.10;1.10;;;18.00;64.50;;;;;;5079864;28;20173;-76
2023/04/23 16:04:40;;;;;;;1.52;1.13;;;18.00;64.40;;;;;;5079594;28;20211;-76
2023/04/23 16:07:06;;;;;;;1.15;1.05;;;18.00;65.10;;;;;;5098386;28;20269;-75
2023/04/23 16:09:35;;;;;;;3.35;1.20;;;18.10;64.70;;;;;;5097236;28;20204;-75
2023/04/23 16:12:01;;;;;;;2.90;1.30;;;18.10;64.30;;;;;;5079595;28;20184;-75
2023/04/23 16:14:26;;;;;;;1.80;1.10;;;18.10;64.30;;;;;;5079074;28;20546;-75
2023/04/23 16:16:52;;;;;;;3.03;1.40;;;18.10;63.50;;;;;;5079682;28;20250;-76
2023/04/23 16:19:18;;;;;;;1.80;1.20;;;18.10;64.40;;;;;;5079038;28;20197;-76
2023/04/23 16:21:43;;;;;;;1.60;1.50;;;18.00;64.00;;;;;;5101092;28;20177;-77
2023/04/23 16:24:10;;;;;;;2.05;1.00;;;17.90;65.10;;;;;;5083836;28;20191;-77
2023/04/23 16:26:36;;;;;;;1.42;1.25;;;17.80;64.70;;;;;;5083907;28;20197;-78
2023/04/23 16:29:02;;;;;;;2.97;1.10;;;17.80;65.60;;;;;;5084154;28;20223;-77
2023/04/23 16:31:28;;;;;;;1.58;1.23;;;17.70;66.50;;;;;;5084802;28;20169;-77
2023/04/23 16:33:54;;;;;;;3.85;1.13;;;17.70;67.80;;;;;;5103973;28;20169;-77
2023/04/23 16:36:22;;;;;;;2.80;1.30;;;17.60;68.10;;;;;;5084751;28;20687;-77
2023/04/23 16:38:48;;;;;;;1.80;1.08;;;17.60;68.20;;;;;;5083643;28;20168;-77
2023/04/23 16:41:19;;;;;;;1.35;1.13;;;17.70;69.70;;;;;;5097672;28;20653;-78
2023/04/23 16:43:46;;;;;;;2.53;1.20;;;17.60;70.10;;;;;;5079282;28;20563;-77
2023/04/23 16:46:16;;;;;;;2.40;1.20;;;17.60;70.90;;;;;;5084829;28;20196;-77
2023/04/23 16:48:45;;;;;;;1.75;1.42;;;17.60;70.90;;;;;;5084405;28;20189;-77
2023/04/23 16:51:12;;;;;;;5.03;1.42;;;17.70;71.10;;;;;;5102503;28;20179;-77
2023/04/23 16:53:38;;;;;;;1.30;1.20;;;17.70;70.40;;;;;;5084579;28;20165;-77
2023/04/23 16:56:04;;;;;;;2.95;1.35;;;17.80;70.00;;;;;;5085194;28;20196;-77
2023/04/23 16:58:34;;;;;;;1.10;1.10;;;17.70;69.00;;;;;;5085794;28;20177;-77
2023/04/23 17:01:00;;;;;;;1.35;1.27;;;17.70;68.90;;;;;;5086066;28;20173;-77
2023/04/23 17:03:28;;;;;;;2.80;1.42;;;17.70;69.20;;;;;;5086151;28;20176;-77
2023/04/23 17:06:17;;;;;;;1.55;1.45;;;17.60;70.60;;;;;;5085289;28;20220;-77
2023/04/23 17:08:47;;;;;;;2.30;1.60;;;17.60;71.40;;;;;;5085407;28;20193;-77
2023/04/23 17:11:18;;;;;;;2.67;1.65;;;17.50;72.00;;;;;;5084050;28;20173;-77
2023/04/23 17:13:43;;;;;;;3.30;1.50;;;17.40;71.10;;;;;;5083810;28;20169;-77
2023/04/23 17:16:25;;;;;;;1.27;1.20;;;17.30;71.10;;;;;;5083580;28;20292;-77
2023/04/23 17:18:56;;;;;;;1.15;1.15;;;17.20;71.30;;;;;;5084519;28;20195;-76
2023/04/23 17:21:22;;;;;;;1.80;1.27;;;17.10;71.30;;;;;;5083931;28;20182;-77
2023/04/23 17:23:48;;;;;;;3.70;1.23;;;17.10;71.50;;;;;;5082751;28;20173;-77
2023/04/23 17:26:20;;;;;;;1.58;1.30;;;17.00;71.50;;;;;;5083585;28;20200;-76
2023/04/23 17:28:50;;;;;;;3.33;1.58;;;17.00;71.40;;;;;;5083234;28;20192;-77
2023/04/23 17:31:32;;;;;;;5.20;3.17;;;17.00;72.30;;;;;;5080951;28;20200;-76
2023/04/23 17:34:00;;;;;;;4.57;4.18;;;16.90;72.30;;;;;;5077917;28;20655;-76
2023/04/23 17:36:26;;;;;;;5.95;2.92;;;16.90;72.90;;;;;;5078078;28;20193;-76
2023/04/23 17:38:51;;;;;;;2.30;2.10;;;16.90;72.60;;;;;;5077894;28;20177;-76
2023/04/23 17:41:21;;;;;;;1.80;1.70;;;16.80;72.60;;;;;;5078810;28;20211;-75
2023/04/23 17:43:49;;;;;;;1.75;1.63;;;16.70;73.10;;;;;;5078346;28;20211;-75
2023/04/23 17:46:14;;;;;;;3.05;1.52;;;16.70;73.60;;;;;;5077337;28;20258;-75
2023/04/23 17:48:43;;;;;;;3.22;1.55;;;16.60;73.20;;;;;;5078213;28;20608;-75
2023/04/23 17:51:09;;;;;;;2.75;1.20;;;16.50;73.70;;;;;;5077508;28;20169;-75
2023/04/23 17:53:35;;;;;;;2.53;1.30;;;16.50;74.10;;;;;;5077118;28;20184;-75
2023/04/23 17:56:08;;;;;;;3.05;1.30;;;16.40;74.00;;;;;;5077699;28;20203;-76
2023/04/23 17:58:34;;;;;;;1.27;1.20;;;16.30;74.90;;;;;;5077903;28;20173;-75
2023/04/23 18:01:19;;;;;;;2.65;1.40;;;16.20;74.80;;;;;;5077399;28;20200;-76
2023/04/23 18:04:03;;;;;;;1.30;1.20;;;16.20;74.60;;;;;;5076898;28;20177;-75
2023/04/23 18:06:29;;;;;;;3.38;1.40;;;16.10;74.60;;;;;;5077094;28;20605;-75
2023/04/23 18:08:55;;;;;;;1.27;1.13;;;16.10;74.50;;;;;;5094819;28;20188;-75
2023/04/23 18:12:02;;;;;;;2.58;1.20;;;16.00;74.90;;;;;;5095045;28;20175;-76
2023/04/23 18:14:28;;;;;;;1.27;1.17;;;15.90;74.90;;;;;;5076816;28;20188;-75
2023/04/23 18:17:16;;;;;;;2.78;1.52;;;15.80;75.60;;;;;;5077245;28;20294;-75
2023/04/23 18:19:53;;;;;;;8.48;2.00;;;15.70;75.60;;;;;;5076646;28;20181;-75
2023/04/23 18:22:20;;;;;;;3.65;1.70;;;15.60;77.70;;;;;;5076645;28;20169;-75
2023/04/23 18:24:53;;;;;;;2.45;1.67;;;15.50;78.10;;;;;;5094881;28;20633;-75
2023/04/23 18:27:29;;;;;;;2.30;1.85;;;15.40;79.30;;;;;;5076499;28;20205;-75
2023/04/23 18:36:37;;;;;;;1.88;1.55;;;15.00;82.20;;;;;;5094581;28;20199;-75
2023/04/23 18:39:09;;;;;;;2.03;1.60;;;14.90;82.90;;;;;;5076421;28;20165;-75
2023/04/23 18:41:36;;;;;;;11.70;2.90;;;14.90;83.70;;;;;;5076430;28;20173;-75
2023/04/23 18:44:16;;;;;;;2.15;1.60;;;14.80;83.80;;;;;;5077254;28;20222;-75
2023/04/23 18:46:41;;;;;;;1.92;1.60;;;14.80;84.20;;;;;;5094098;28;20223;-75
2023/04/23 18:49:43;;;;;;;1.63;1.50;;;14.80;84.20;;;;;;5075928;28;20220;-75
2023/04/23 18:52:09;;;;;;;1.52;1.40;;;14.70;83.90;;;;;;5076007;28;20179;-75
2023/04/23 18:54:35;;;;;;;1.75;1.50;;;14.70;83.70;;;;;;5076200;28;20253;-75
2023/04/23 18:57:03;;;;;;;2.22;1.40;;;14.70;83.70;;;;;;5076411;28;20224;-75
2023/04/23 18:59:33;;;;;;;1.55;1.42;;;14.80;84.00;;;;;;5075900;28;20181;-75
2023/04/23 19:02:01;;;;;;;3.83;1.70;;;14.80;84.60;;;;;;5093812;28;20159;-75
2023/04/23 19:04:27;;;;;;;1.73;1.60;;;14.90;84.50;;;;;;5075863;28;20226;-75
2023/04/23 19:06:53;;;;;;;3.10;1.40;;;15.00;84.00;;;;;;5075771;28;20216;-75
2023/04/23 19:09:19;;;;;;;2.72;1.60;;;15.00;84.60;;;;;;5075561;28;20203;-75
2023/04/23 19:11:45;;;;;;;3.20;1.50;;;15.00;86.70;;;;;;5075861;28;20182;-75
2023/04/23 19:14:10;;;;;;;2.45;1.50;;;15.10;88.50;;;;;;5075978;28;20169;-76
2023/04/23 19:16:36;;;;;;;3.83;1.38;;;15.00;89.30;;;;;;5075588;28;20337;-75
2023/04/23 19:19:01;;;;;;;1.42;1.40;;;15.00;90.40;;;;;;5093740;28;20165;-75
2023/04/23 19:21:27;;;;;;;2.00;1.58;;;15.00;90.90;;;;;;5075940;28;20181;-75
2023/04/23 19:23:53;;;;;;;8.65;1.83;;;14.90;91.90;;;;;;5075659;28;20183;-75
2023/04/23 19:26:18;;;;;;;5.03;1.83;;;14.40;95.60;;;;;;5075491;28;20208;-76
2023/04/23 19:28:44;;;;;;;4.63;1.33;;;14.00;97.90;;;;;;5076434;28;20204;-76
2023/04/23 19:31:10;;;;;;;1.83;1.30;;;13.80;98.30;;;;;;5075629;28;20172;-76
2023/04/23 19:33:35;;;;;;;1.52;1.20;;;13.70;99.40;;;;;;5075948;28;20598;-76
2023/04/23 19:36:01;;;;;;;1.50;1.20;;;13.70;99.40;;;;;;5075348;28;20242;-76
2023/04/23 19:38:26;;;;;;;1.40;1.15;;;13.60;99.80;;;;;;5075461;28;20169;-76
2023/04/23 19:40:52;;;;;;;1.45;1.20;;;13.50;99.90;;;;;;5075394;28;20184;-76
2023/04/23 19:43:18;;;;;;;2.35;1.15;;;13.40;99.90;;;;;;5075617;28;20176;-76
2023/04/23 19:45:45;;;;;;;3.67;1.60;;;13.40;99.90;;;;;;5075319;28;20621;-76
2023/04/23 19:48:11;;;;;;;3.33;1.35;;;13.40;99.90;;;;;;5075889;28;20204;-76
2023/04/23 19:50:44;;;;;;;4.43;1.33;;;13.50;99.90;;;;;;5075278;28;20169;-76
2023/04/23 19:53:10;;;;;;;2.30;1.58;;;13.50;99.90;;;;;;5075338;28;20318;-76
2023/04/23 19:55:36;;;;;;;1.45;1.35;;;13.40;99.90;;;;;;5075240;28;20207;-76
2023/04/23 19:58:14;;;;;;;3.22;1.10;;;13.40;99.90;;;;;;5075756;28;20188;-78
2023/04/23 20:00:42;;;;;;;1.30;1.20;;;13.40;99.90;;;;;;5075251;28;20177;-77
2023/04/23 20:03:28;;;;;;;1.77;1.38;;;13.30;99.90;;;;;;5075425;28;20193;-76
2023/04/23 20:05:58;;;;;;;1.63;1.10;;;13.40;99.90;;;;;;5076422;28;20344;-76
2023/04/23 20:09:06;;;;;;;4.07;3.78;;;13.30;99.90;;;;;;5075478;28;20220;-76
2023/04/23 20:11:35;;;;;;;4.30;3.10;;;13.00;99.90;;;;;;5076433;28;20256;-78
2023/04/23 20:14:02;;;;;;;3.35;3.13;;;13.00;99.90;;;;;;5075543;28;20192;-75
2023/04/23 20:16:28;;;;;;;4.93;4.03;;;12.80;99.90;;;;;;5075184;28;20284;-76
2023/04/23 20:18:56;;;;;;;3.97;3.67;;;12.60;99.90;;;;;;5093517;28;20668;-75
2023/04/23 20:21:23;;;;;;;2.40;2.15;;;12.60;99.90;;;;;;5076172;28;20268;-81
2023/04/23 20:23:52;;;;;;;1.88;1.38;;;12.70;99.90;;;;;;5075451;28;20207;-75
2023/04/23 20:26:18;;;;;;;1.40;1.30;;;12.90;99.90;;;;;;5075632;28;20642;-75
2023/04/23 20:28:46;;;;;;;2.03;1.50;;;13.00;99.90;;;;;;5093760;28;20280;-75
2023/04/23 20:31:11;;;;;;;3.60;1.33;;;13.10;99.90;;;;;;5093040;28;20149;-75
2023/04/23 20:33:37;;;;;;;1.45;1.30;;;13.20;99.90;;;;;;5075016;28;20172;-75
2023/04/23 20:36:03;;;;;;;2.55;1.45;;;13.20;99.90;;;;;;5074797;28;20245;-75
2023/04/23 20:38:32;;;;;;;1.50;1.40;;;13.20;99.90;;;;;;5074848;28;20181;-75
2023/04/23 20:41:01;;;;;;;2.72;1.50;;;13.10;99.90;;;;;;5074838;28;20181;-75
2023/04/23 20:43:32;;;;;;;3.97;1.65;;;13.00;99.90;;;;;;5092855;28;20173;-75
2023/04/23 20:45:58;;;;;;;7.22;1.65;;;13.00;99.90;;;;;;5094180;28;20215;-75
2023/04/23 20:48:25;;;;;;;1.10;1.10;;;12.90;99.90;;;;;;5078224;28;20204;-75
2023/04/23 20:50:51;;;;;;;2.35;1.00;;;12.90;99.90;;;;;;5096768;28;20176;-75